Time;durP1;ratioP1;P1;durP2;ratioP2;P2;SDS_P1;SDS_P2;PMS_P1;PMS_P2;Temp;Humidity;BMP_temperature;BMP_pressure;BME280_temperature;BME280_humidity;BME280_pressure;Samples;Min_cycle;Max_cycle;Signal;HPM_P1;HPM_P2
2021/08/02 00:01:53;;;;;;;;;;;18.80;75.90;;;;;;5049586;28;19925;-78
2021/08/02 00:04:22;;;;;;;;;;;18.70;76.10;;;;;;5052641;28;19925;-78
2021/08/02 00:06:49;;;;;;;;;;;18.70;76.20;;;;;;5052380;28;19979;-77
2021/08/02 00:09:17;;;;;;;;;;;18.70;76.30;;;;;;5052565;28;19925;-78
2021/08/02 00:11:54;;;;;;;;;;;18.70;76.40;;;;;;5052445;28;20326;-78
2021/08/02 00:14:21;;;;;;;;;;;18.70;76.60;;;;;;5033937;28;20374;-78
2021/08/02 00:16:47;;;;;;;;;;;18.70;76.60;;;;;;5052530;28;19925;-78
2021/08/02 00:19:13;;;;;;;;;;;18.70;76.70;;;;;;5041070;28;20387;-78
2021/08/02 00:21:41;;;;;;;;;;;18.60;76.80;;;;;;5047062;28;19925;-77
2021/08/02 00:24:07;;;;;;;;;;;18.60;76.90;;;;;;5052127;28;19924;-78
2021/08/02 00:26:34;;;;;;;;;;;18.60;77.00;;;;;;5052479;28;19928;-78
2021/08/02 00:29:00;;;;;;;;;;;18.60;77.00;;;;;;5052433;28;20540;-77
2021/08/02 00:31:27;;;;;;;;;;;18.60;77.10;;;;;;5052391;28;19925;-77
2021/08/02 00:33:53;;;;;;;;;;;18.60;77.20;;;;;;5052594;28;19967;-77
2021/08/02 00:36:32;;;;;;;;;;;18.60;77.30;;;;;;5034233;28;19964;-78
2021/08/02 00:39:05;;;;;;;;;;;18.60;77.20;;;;;;5051816;28;20059;-77
2021/08/02 00:41:55;;;;;;;;;;;18.60;77.40;;;;;;5052145;28;20297;-78
2021/08/02 00:44:21;;;;;;;;;;;18.60;77.30;;;;;;5051707;28;19925;-77
2021/08/02 00:46:51;;;;;;;;;;;18.60;77.20;;;;;;5053405;28;19955;-78
2021/08/02 00:49:20;;;;;;;;;;;18.60;77.20;;;;;;5056349;28;19971;-77
2021/08/02 00:51:49;;;;;;;;;;;18.60;77.10;;;;;;5055783;28;20292;-78
2021/08/02 00:54:15;;;;;;;;;;;18.60;77.00;;;;;;5056072;28;19980;-78
2021/08/02 00:56:41;;;;;;;;;;;18.70;77.00;;;;;;5055601;28;19968;-77
2021/08/02 00:59:07;;;;;;;;;;;18.70;77.20;;;;;;5055724;28;20004;-77
2021/08/02 01:01:35;;;;;;;;;;;18.70;77.20;;;;;;5055876;28;20353;-78
2021/08/02 01:04:03;;;;;;;;;;;18.60;77.20;;;;;;5055869;28;19925;-78
2021/08/02 01:06:33;;;;;;;;;;;18.60;77.20;;;;;;5055480;28;19956;-78
2021/08/02 01:09:02;;;;;;;;;;;18.60;77.20;;;;;;5055572;28;20413;-78
2021/08/02 01:11:33;;;;;;;;;;;18.60;77.20;;;;;;5055861;28;19925;-78
2021/08/02 01:14:04;;;;;;;;;;;18.60;77.40;;;;;;5055362;28;20265;-78
2021/08/02 01:16:32;;;;;;;;;;;18.60;77.40;;;;;;5055694;28;19931;-77
2021/08/02 01:18:58;;;;;;;;;;;18.60;77.40;;;;;;5055283;28;19936;-78
2021/08/02 01:21:25;;;;;;;;;;;18.60;77.50;;;;;;5055585;28;19925;-77
2021/08/02 01:23:51;;;;;;;;;;;18.60;77.60;;;;;;5055785;28;19932;-78
2021/08/02 01:26:36;;;;;;;;;;;18.70;77.80;;;;;;5055599;28;19932;-78
2021/08/02 01:29:21;;;;;;;;;;;18.70;77.80;;;;;;5055304;28;20403;-77
2021/08/02 01:31:47;;;;;;;;;;;18.70;77.90;;;;;;5039541;28;19929;-78
2021/08/02 01:34:13;;;;;;;;;;;18.60;78.00;;;;;;5035285;28;19925;-77
2021/08/02 01:36:40;;;;;;;;;;;18.60;77.90;;;;;;5035189;28;20446;-77
2021/08/02 01:39:06;;;;;;;;;;;18.70;77.80;;;;;;5035310;28;19929;-77
2021/08/02 01:41:32;;;;;;;;;;;18.60;77.70;;;;;;5035160;28;19924;-77
2021/08/02 01:43:58;;;;;;;;;;;18.60;77.80;;;;;;5035829;28;19929;-77
2021/08/02 01:46:34;;;;;;;;;;;18.60;77.90;;;;;;5034921;28;19933;-77
2021/08/02 01:49:27;;;;;;;;;;;18.60;77.80;;;;;;5034915;28;19925;-77
2021/08/02 01:51:54;;;;;;;;;;;18.60;78.00;;;;;;5033594;28;20400;-77
2021/08/02 01:54:28;;;;;;;;;;;18.60;78.10;;;;;;5035137;28;20012;-78
2021/08/02 01:57:00;;;;;;;;;;;18.60;78.20;;;;;;5034940;28;19925;-77
2021/08/02 01:59:29;;;;;;;;;;;18.60;78.20;;;;;;5034873;28;20511;-78
2021/08/02 02:01:56;;;;;;;;;;;18.60;78.40;;;;;;5034803;28;19925;-77
2021/08/02 02:04:27;;;;;;;;;;;18.60;78.40;;;;;;5034502;28;19925;-78
2021/08/02 02:06:55;;;;;;;;;;;18.50;78.50;;;;;;5034620;28;19968;-77
2021/08/02 02:09:21;;;;;;;;;;;18.50;78.50;;;;;;5035137;28;19978;-78
2021/08/02 02:11:48;;;;;;;;;;;18.50;78.70;;;;;;5034691;28;19991;-77
2021/08/02 02:14:15;;;;;;;;;;;18.50;78.70;;;;;;5034783;28;19931;-78
2021/08/02 02:16:43;;;;;;;;;;;18.50;78.80;;;;;;5034729;28;19925;-77
2021/08/02 02:19:10;;;;;;;;;;;18.50;78.70;;;;;;5033682;28;19929;-77
2021/08/02 02:21:38;;;;;;;;;;;18.50;78.80;;;;;;5035008;28;19933;-77
2021/08/02 02:24:05;;;;;;;;;;;18.40;78.80;;;;;;5034400;28;19932;-78
2021/08/02 02:26:32;;;;;;;;;;;18.40;79.00;;;;;;5034634;28;20055;-77
2021/08/02 02:29:00;;;;;;;;;;;18.40;78.90;;;;;;5034299;28;20409;-77
2021/08/02 02:31:27;;;;;;;;;;;18.40;79.00;;;;;;5034650;28;20059;-77
2021/08/02 02:33:55;;;;;;;;;;;18.40;79.00;;;;;;5034116;28;20002;-77
2021/08/02 02:36:21;;;;;;;;;;;18.40;79.10;;;;;;5034147;28;19932;-77
2021/08/02 02:38:50;;;;;;;;;;;18.40;79.10;;;;;;5034501;28;19932;-77
2021/08/02 02:41:18;;;;;;;;;;;18.30;79.20;;;;;;5034060;28;19937;-77
2021/08/02 02:43:45;;;;;;;;;;;18.30;79.20;;;;;;5034359;28;19925;-77
2021/08/02 02:46:11;;;;;;;;;;;18.30;79.30;;;;;;5033887;28;20004;-77
2021/08/02 02:48:38;;;;;;;;;;;18.30;79.50;;;;;;5034110;28;20426;-77
2021/08/02 02:51:04;;;;;;;;;;;18.30;79.90;;;;;;5033841;28;19925;-77
2021/08/02 02:53:31;;;;;;;;;;;18.30;80.00;;;;;;5033925;28;19925;-77
2021/08/02 02:55:58;;;;;;;;;;;18.20;79.90;;;;;;5034104;28;20373;-77
2021/08/02 02:58:24;;;;;;;;;;;18.20;79.90;;;;;;5033816;28;20372;-77
2021/08/02 03:00:52;;;;;;;;;;;18.20;80.00;;;;;;5033991;28;19925;-77
2021/08/02 03:03:21;;;;;;;;;;;18.30;80.00;;;;;;5033253;28;20392;-77
2021/08/02 03:05:48;;;;;;;;;;;18.30;79.90;;;;;;5042776;28;19931;-77
2021/08/02 03:08:15;;;;;;;;;;;18.30;79.90;;;;;;5036807;28;19976;-77
2021/08/02 03:10:42;;;;;;;;;;;18.30;79.80;;;;;;5033301;28;19925;-77
2021/08/02 03:13:08;;;;;;;;;;;18.30;79.70;;;;;;5015563;28;20278;-77
2021/08/02 03:15:35;;;;;;;;;;;18.30;79.70;;;;;;5033226;28;20008;-77
2021/08/02 03:18:01;;;;;;;;;;;18.30;79.60;;;;;;5033677;28;20408;-77
2021/08/02 03:20:27;;;;;;;;;;;18.30;79.70;;;;;;5035456;28;19979;-78
2021/08/02 03:23:16;;;;;;;;;;;18.30;79.70;;;;;;5053174;28;19986;-78
2021/08/02 03:25:50;;;;;;;;;;;18.30;79.60;;;;;;5047899;28;19925;-77
2021/08/02 03:28:29;;;;;;;;;;;18.30;79.50;;;;;;5053368;28;20376;-77
2021/08/02 03:30:57;;;;;;;;;;;18.30;79.50;;;;;;5040903;28;19932;-77
2021/08/02 03:33:30;;;;;;;;;;;18.30;79.60;;;;;;5053117;28;19924;-78
2021/08/02 03:35:58;;;;;;;;;;;18.30;79.70;;;;;;5040489;28;19925;-77
2021/08/02 03:38:25;;;;;;;;;;;18.30;79.70;;;;;;5051048;28;19931;-77
2021/08/02 03:40:51;;;;;;;;;;;18.30;80.70;;;;;;5052959;28;19925;-77
2021/08/02 03:43:18;;;;;;;;;;;18.30;79.90;;;;;;5053442;28;19931;-77
2021/08/02 03:45:46;;;;;;;;;;;18.30;79.90;;;;;;5052692;28;19929;-77
2021/08/02 03:48:12;;;;;;;;;;;18.30;79.80;;;;;;5052953;28;19948;-77
2021/08/02 03:50:39;;;;;;;;;;;18.30;79.90;;;;;;5052999;28;19924;-77
2021/08/02 03:53:05;;;;;;;;;;;18.20;79.80;;;;;;5053088;28;19928;-77
2021/08/02 03:55:32;;;;;;;;;;;18.20;79.80;;;;;;5053042;28;20388;-77
2021/08/02 03:57:58;;;;;;;;;;;18.20;80.00;;;;;;5052672;28;20393;-77
2021/08/02 04:00:25;;;;;;;;;;;18.20;79.90;;;;;;5052340;28;19971;-77
2021/08/02 04:02:51;;;;;;;;;;;18.20;79.90;;;;;;5052286;28;19925;-77
2021/08/02 04:05:18;;;;;;;;;;;18.20;80.00;;;;;;5052953;28;19924;-77
2021/08/02 04:07:45;;;;;;;;;;;18.10;80.10;;;;;;5052661;28;20019;-77
2021/08/02 04:10:12;;;;;;;;;;;18.10;80.10;;;;;;5052689;28;19924;-77
2021/08/02 04:12:54;;;;;;;;;;;18.10;80.10;;;;;;5052310;28;20476;-77
2021/08/02 04:15:22;;;;;;;;;;;18.10;80.20;;;;;;5052297;28;20004;-77
2021/08/02 04:17:53;;;;;;;;;;;18.10;80.10;;;;;;5051343;28;19925;-77
2021/08/02 04:20:45;;;;;;;;;;;18.10;80.10;;;;;;5017112;28;19965;-77
2021/08/02 04:23:41;;;;;;;;;;;18.00;80.00;;;;;;5036290;28;19925;-77
2021/08/02 04:26:11;;;;;;;;;;;18.00;80.00;;;;;;5036644;28;20281;-77
2021/08/02 04:28:42;;;;;;;;;;;18.00;80.10;;;;;;5036609;28;19926;-77
2021/08/02 04:31:09;;;;;;;;;;;18.00;80.10;;;;;;5036238;28;19925;-77
2021/08/02 04:33:35;;;;;;;;;;;18.00;80.30;;;;;;5036775;28;19925;-76
2021/08/02 04:36:02;;;;;;;;;;;18.00;80.40;;;;;;5036665;28;20008;-77
2021/08/02 04:38:28;;;;;;;;;;;18.00;80.50;;;;;;5035938;28;19929;-77
2021/08/02 04:40:55;;;;;;;;;;;18.00;80.50;;;;;;5036009;28;19926;-78
2021/08/02 04:43:21;;;;;;;;;;;17.90;80.50;;;;;;5036602;28;19925;-79
2021/08/02 04:45:47;;;;;;;;;;;18.00;80.60;;;;;;5036300;28;20296;-78
2021/08/02 04:48:13;;;;;;;;;;;18.00;80.60;;;;;;5035554;28;19981;-78
2021/08/02 04:50:42;;;;;;;;;;;18.00;80.60;;;;;;5036458;28;19925;-78
2021/08/02 04:53:09;;;;;;;;;;;18.00;80.60;;;;;;5036181;28;19925;-77
2021/08/02 04:55:35;;;;;;;;;;;18.00;80.60;;;;;;5035594;28;19933;-78
2021/08/02 04:58:02;;;;;;;;;;;18.00;80.60;;;;;;5036220;28;19948;-78
2021/08/02 05:00:28;;;;;;;;;;;18.00;80.50;;;;;;5036458;28;20015;-78
2021/08/02 05:02:55;;;;;;;;;;;18.00;80.40;;;;;;5036176;28;19963;-77
2021/08/02 05:05:21;;;;;;;;;;;18.00;80.30;;;;;;5036326;28;19958;-78
2021/08/02 05:07:47;;;;;;;;;;;18.00;80.30;;;;;;5036040;28;19932;-78
2021/08/02 05:10:13;;;;;;;;;;;18.00;80.30;;;;;;5035507;28;20021;-77
2021/08/02 05:12:40;;;;;;;;;;;18.10;80.30;;;;;;5035030;28;19925;-76
2021/08/02 05:15:08;;;;;;;;;;;18.10;80.20;;;;;;5035266;28;19933;-79
2021/08/02 05:17:34;;;;;;;;;;;18.10;80.10;;;;;;5034426;28;19932;-78
2021/08/02 05:20:01;;;;;;;;;;;18.10;80.10;;;;;;5034303;28;20312;-77
2021/08/02 05:22:27;;;;;;;;;;;18.10;80.00;;;;;;5034644;28;19929;-78
2021/08/02 05:24:53;;;;;;;;;;;18.10;80.00;;;;;;5035612;28;20272;-78
2021/08/02 05:27:19;;;;;;;;;;;18.10;80.00;;;;;;5033669;28;20008;-78
2021/08/02 05:29:45;;;;;;;;;;;18.10;80.00;;;;;;5033674;28;20366;-78
2021/08/02 05:32:11;;;;;;;;;;;18.10;80.00;;;;;;5033360;28;19971;-77
2021/08/02 05:34:40;;;;;;;;;;;18.10;80.00;;;;;;5035402;28;20360;-77
2021/08/02 05:37:09;;;;;;;;;;;18.10;79.90;;;;;;5035300;28;20273;-78
2021/08/02 05:39:36;;;;;;;;;;;18.10;79.90;;;;;;5035249;28;19925;-78
2021/08/02 05:42:03;;;;;;;;;;;18.20;79.90;;;;;;5034552;28;20016;-78
2021/08/02 05:44:29;;;;;;;;;;;18.20;79.80;;;;;;5035043;28;19926;-78
2021/08/02 05:46:55;;;;;;;;;;;18.20;79.80;;;;;;5035404;28;20454;-77
2021/08/02 05:49:22;;;;;;;;;;;18.20;79.80;;;;;;5034094;28;19926;-76
2021/08/02 05:51:49;;;;;;;;;;;18.20;79.70;;;;;;5048328;28;19933;-80
2021/08/02 05:54:15;;;;;;;;;;;18.20;79.70;;;;;;5032739;28;19933;-77
2021/08/02 05:56:42;;;;;;;;;;;18.30;79.70;;;;;;5033398;28;20500;-77
2021/08/02 05:59:08;;;;;;;;;;;18.20;79.60;;;;;;5034219;28;19998;-78
2021/08/02 06:01:34;;;;;;;;;;;18.30;79.50;;;;;;5034316;28;19929;-79
2021/08/02 06:04:00;;;;;;;;;;;18.40;79.50;;;;;;5034154;28;19932;-78
2021/08/02 06:06:27;;;;;;;;;;;18.30;79.30;;;;;;5025615;28;20346;-78
2021/08/02 06:08:53;;;;;;;;;;;18.40;79.30;;;;;;5013486;28;19929;-77
2021/08/02 06:11:19;;;;;;;;;;;18.40;79.20;;;;;;5047465;28;19947;-78
2021/08/02 06:13:48;;;;;;;;;;;18.50;79.10;;;;;;5031855;28;19929;-78
2021/08/02 06:16:20;;;;;;;;;;;18.50;79.00;;;;;;5032025;28;19925;-78
2021/08/02 06:18:47;;;;;;;;;;;18.60;78.90;;;;;;5030774;28;20385;-78
2021/08/02 06:21:13;;;;;;;;;;;18.60;78.70;;;;;;5036540;28;19929;-78
2021/08/02 06:23:39;;;;;;;;;;;18.60;78.50;;;;;;5044866;28;19924;-78
2021/08/02 06:26:05;;;;;;;;;;;18.60;78.20;;;;;;5047184;28;20019;-78
2021/08/02 06:28:31;;;;;;;;;;;18.60;78.20;;;;;;5043455;28;19929;-78
2021/08/02 06:31:01;;;;;;;;;;;18.70;78.20;;;;;;5046982;28;19929;-78
2021/08/02 06:33:28;;;;;;;;;;;18.70;78.10;;;;;;5042262;28;20392;-78
2021/08/02 06:35:54;;;;;;;;;;;18.70;78.10;;;;;;5046380;28;19998;-78
2021/08/02 06:38:20;;;;;;;;;;;18.70;78.10;;;;;;5043276;28;20422;-77
2021/08/02 06:40:46;;;;;;;;;;;18.80;78.10;;;;;;5035194;28;19972;-78
2021/08/02 06:43:13;;;;;;;;;;;18.80;78.00;;;;;;5032348;28;19925;-77
2021/08/02 06:45:40;;;;;;;;;;;18.80;77.80;;;;;;5030722;28;19937;-78
2021/08/02 06:48:06;;;;;;;;;;;18.90;77.70;;;;;;5014487;28;19991;-78
2021/08/02 06:50:33;;;;;;;;;;;18.90;77.50;;;;;;5031186;28;20020;-76
2021/08/02 06:52:59;;;;;;;;;;;18.90;77.30;;;;;;5030485;28;20301;-77
2021/08/02 06:55:25;;;;;;;;;;;18.90;77.00;;;;;;5030033;28;20020;-77
2021/08/02 06:57:51;;;;;;;;;;;18.90;76.90;;;;;;5033732;28;19936;-77
2021/08/02 07:00:17;;;;;;;;;;;18.90;76.60;;;;;;5010320;28;20309;-77
2021/08/02 07:02:44;;;;;;;;;;;18.90;76.80;;;;;;5034292;28;20030;-78
2021/08/02 07:05:10;;;;;;;;;;;18.90;76.80;;;;;;5033906;28;19928;-78
2021/08/02 07:07:36;;;;;;;;;;;18.90;76.90;;;;;;5029426;28;19933;-77
2021/08/02 07:10:03;;;;;;;;;;;18.90;76.90;;;;;;5030734;28;19929;-77
2021/08/02 07:12:30;;;;;;;;;;;19.00;76.90;;;;;;5030899;28;19929;-77
2021/08/02 07:14:56;;;;;;;;;;;18.90;76.70;;;;;;5030576;28;20059;-77
2021/08/02 07:17:22;;;;;;;;;;;18.90;76.60;;;;;;5012834;28;19936;-77
2021/08/02 07:19:48;;;;;;;;;;;18.90;77.60;;;;;;5030300;28;19929;-77
2021/08/02 07:22:14;;;;;;;;;;;18.90;76.80;;;;;;5032137;28;20007;-77
2021/08/02 07:24:40;;;;;;;;;;;18.90;76.60;;;;;;5029361;28;19976;-77
2021/08/02 07:27:07;;;;;;;;;;;18.90;76.60;;;;;;5029647;28;20007;-77
2021/08/02 07:29:33;;;;;;;;;;;18.90;76.50;;;;;;5029386;28;20021;-77
2021/08/02 07:31:59;;;;;;;;;;;19.00;76.60;;;;;;5029522;28;20304;-77
2021/08/02 07:34:25;;;;;;;;;;;19.00;76.50;;;;;;5029914;28;19973;-77
2021/08/02 07:36:51;;;;;;;;;;;19.00;76.50;;;;;;5024248;28;19936;-78
2021/08/02 07:39:17;;;;;;;;;;;19.10;76.40;;;;;;5030481;28;19932;-77
2021/08/02 07:41:43;;;;;;;;;;;19.20;76.20;;;;;;5029594;28;20308;-77
2021/08/02 07:44:10;;;;;;;;;;;19.20;76.10;;;;;;5030551;28;19948;-77
2021/08/02 07:46:36;;;;;;;;;;;19.20;76.00;;;;;;5030153;28;20281;-81
2021/08/02 07:49:02;;;;;;;;;;;19.30;75.90;;;;;;5032535;28;20019;-81
2021/08/02 07:51:30;;;;;;;;;;;19.30;75.70;;;;;;5030176;28;20411;-77
2021/08/02 07:53:58;;;;;;;;;;;19.30;75.10;;;;;;5029922;28;19936;-78
2021/08/02 07:56:24;;;;;;;;;;;19.40;75.00;;;;;;5030934;28;19929;-78
2021/08/02 07:58:51;;;;;;;;;;;19.40;75.00;;;;;;5030044;28;19975;-77
2021/08/02 08:01:17;;;;;;;;;;;19.40;75.00;;;;;;5030090;28;19929;-78
2021/08/02 08:03:44;;;;;;;;;;;19.40;74.90;;;;;;5029531;28;20308;-77
2021/08/02 08:06:10;;;;;;;;;;;19.50;74.90;;;;;;5030660;28;19925;-77
2021/08/02 08:08:36;;;;;;;;;;;19.50;74.90;;;;;;5029533;28;20400;-78
2021/08/02 08:11:03;;;;;;;;;;;19.50;74.90;;;;;;5029258;28;20387;-78
2021/08/02 08:13:29;;;;;;;;;;;19.60;75.00;;;;;;5031044;28;20020;-78
2021/08/02 08:15:55;;;;;;;;;;;19.60;74.90;;;;;;5029649;28;20286;-77
2021/08/02 08:18:21;;;;;;;;;;;19.60;74.50;;;;;;5029487;28;20709;-77
2021/08/02 08:20:47;;;;;;;;;;;19.70;74.30;;;;;;5029279;28;19964;-77
2021/08/02 08:23:13;;;;;;;;;;;19.70;74.20;;;;;;5043697;28;19936;-77
2021/08/02 08:25:40;;;;;;;;;;;19.70;74.20;;;;;;5041233;28;19928;-77
2021/08/02 08:28:08;;;;;;;;;;;19.70;74.10;;;;;;5046386;28;19933;-77
2021/08/02 08:30:34;;;;;;;;;;;19.80;74.20;;;;;;5062531;28;19974;-77
2021/08/02 08:33:00;;;;;;;;;;;19.80;75.10;;;;;;5047916;28;19928;-77
2021/08/02 08:35:26;;;;;;;;;;;19.80;74.20;;;;;;5047346;28;20060;-78
2021/08/02 08:37:52;;;;;;;;;;;19.90;73.90;;;;;;5049427;28;19963;-77
2021/08/02 08:40:19;;;;;;;;;;;20.00;73.80;;;;;;5050130;28;19936;-78
2021/08/02 08:42:47;;;;;;;;;;;20.00;73.50;;;;;;5047893;28;19936;-77
2021/08/02 08:45:13;;;;;;;;;;;20.10;72.70;;;;;;5048560;28;19999;-77
2021/08/02 08:47:39;;;;;;;;;;;20.20;72.70;;;;;;5051865;28;19942;-78
2021/08/02 08:50:06;;;;;;;;;;;20.20;72.70;;;;;;5048654;28;19925;-78
2021/08/02 08:52:33;;;;;;;;;;;20.30;72.50;;;;;;5030280;28;19948;-77
2021/08/02 08:55:00;;;;;;;;;;;20.40;72.30;;;;;;5047747;28;20556;-77
2021/08/02 08:57:26;;;;;;;;;;;20.40;71.60;;;;;;5048302;28;20392;-77
2021/08/02 08:59:52;;;;;;;;;;;20.40;71.70;;;;;;5048284;28;19987;-77
2021/08/02 09:02:26;;;;;;;;;;;20.50;71.70;;;;;;5049057;28;19929;-77
2021/08/02 09:04:56;;;;;;;;;;;20.60;71.70;;;;;;5048020;28;20017;-77
2021/08/02 09:07:32;;;;;;;;;;;20.70;71.20;;;;;;5038384;28;20026;-77
2021/08/02 09:09:59;;;;;;;;;;;20.90;71.00;;;;;;5052001;28;19924;-77
2021/08/02 09:12:26;;;;;;;;;;;21.20;70.40;;;;;;5051916;28;19944;-77
2021/08/02 09:14:52;;;;;;;;;;;21.50;69.60;;;;;;5050705;28;19940;-77
2021/08/02 09:17:28;;;;;;;;;;;21.80;67.90;;;;;;5051319;28;20020;-77
2021/08/02 09:19:54;;;;;;;;;;;22.00;66.70;;;;;;5050505;28;20328;-77
2021/08/02 09:22:30;;;;;;;;;;;22.20;66.00;;;;;;5050623;28;19933;-77
2021/08/02 09:25:07;;;;;;;;;;;22.60;65.70;;;;;;5050307;28;20388;-77
2021/08/02 09:27:35;;;;;;;;;;;23.20;64.90;;;;;;5050686;28;19933;-77
2021/08/02 09:30:11;;;;;;;;;;;23.80;64.00;;;;;;5051349;28;19925;-77
2021/08/02 09:32:51;;;;;;;;;;;24.20;61.90;;;;;;5051623;28;19936;-77
2021/08/02 09:35:39;;;;;;;;;;;24.60;60.50;;;;;;5050776;28;19954;-76
2021/08/02 09:38:06;;;;;;;;;;;24.80;59.40;;;;;;5051143;28;20314;-77
2021/08/02 09:40:49;;;;;;;;;;;24.80;58.20;;;;;;5053876;28;19932;-77
2021/08/02 09:43:20;;;;;;;;;;;24.90;58.00;;;;;;5050801;28;20406;-77
2021/08/02 09:45:48;;;;;;;;;;;24.80;57.40;;;;;;5044124;28;19929;-77
2021/08/02 09:48:15;;;;;;;;;;;24.60;57.70;;;;;;5034064;28;20505;-77
2021/08/02 09:50:45;;;;;;;;;;;24.40;56.80;;;;;;5045014;28;20320;-76
2021/08/02 09:53:15;;;;;;;;;;;24.20;57.40;;;;;;5048624;28;19933;-77
2021/08/02 09:55:43;;;;;;;;;;;24.20;57.50;;;;;;5048333;28;20457;-77
2021/08/02 09:58:18;;;;;;;;;;;24.00;57.40;;;;;;5049529;28;19936;-77
2021/08/02 10:00:45;;;;;;;;;;;23.80;57.50;;;;;;5051100;28;19928;-77
2021/08/02 10:03:12;;;;;;;;;;;23.50;56.70;;;;;;5051125;28;19929;-77
2021/08/02 10:05:38;;;;;;;;;;;23.20;57.30;;;;;;5052474;28;20055;-77
2021/08/02 10:08:06;;;;;;;;;;;23.00;59.00;;;;;;5041157;28;19925;-77
2021/08/02 10:10:35;;;;;;;;;;;22.80;58.80;;;;;;5049950;28;19983;-77
2021/08/02 10:13:01;;;;;;;;;;;22.50;60.80;;;;;;5042666;28;19982;-77
2021/08/02 10:15:27;;;;;;;;;;;22.30;60.40;;;;;;5043769;28;20018;-77
2021/08/02 10:17:54;;;;;;;;;;;22.10;60.80;;;;;;5048374;28;20339;-77
2021/08/02 10:20:25;;;;;;;;;;;22.00;60.50;;;;;;5042950;28;19940;-77
2021/08/02 10:22:51;;;;;;;;;;;21.80;60.30;;;;;;5048495;28;19925;-78
2021/08/02 10:25:18;;;;;;;;;;;21.60;60.70;;;;;;5043483;28;19979;-79
2021/08/02 10:27:44;;;;;;;;;;;21.50;61.30;;;;;;5048037;28;19986;-76
2021/08/02 10:30:19;;;;;;;;;;;21.40;62.20;;;;;;5040820;28;20331;-76
2021/08/02 10:32:50;;;;;;;;;;;21.40;63.40;;;;;;5047608;28;19928;-77
2021/08/02 10:35:16;;;;;;;;;;;21.40;63.70;;;;;;5041738;28;19975;-76
2021/08/02 10:37:43;;;;;;;;;;;21.30;63.90;;;;;;5046209;28;19929;-77
2021/08/02 10:40:10;;;;;;;;;;;21.30;63.80;;;;;;5043217;28;19935;-76
2021/08/02 10:42:46;;;;;;;;;;;21.30;63.50;;;;;;5050106;28;20037;-76
2021/08/02 10:45:12;;;;;;;;;;;21.30;64.00;;;;;;5049964;28;20266;-77
2021/08/02 10:47:39;;;;;;;;;;;21.20;64.10;;;;;;5049270;28;19935;-76
2021/08/02 10:50:05;;;;;;;;;;;21.10;64.30;;;;;;5049573;28;20443;-76
2021/08/02 10:52:32;;;;;;;;;;;21.20;64.50;;;;;;5049818;28;19928;-76
2021/08/02 10:54:58;;;;;;;;;;;21.10;64.80;;;;;;5049395;28;19929;-77
2021/08/02 10:57:24;;;;;;;;;;;21.00;65.30;;;;;;5049904;28;19933;-77
2021/08/02 10:59:50;;;;;;;;;;;20.90;65.50;;;;;;5038272;28;19982;-77
2021/08/02 11:02:18;;;;;;;;;;;20.80;65.80;;;;;;5046150;28;20307;-77
2021/08/02 11:04:51;;;;;;;;;;;20.70;65.90;;;;;;5050880;28;19933;-77
2021/08/02 11:07:17;;;;;;;;;;;20.70;66.30;;;;;;5048790;28;20055;-76
2021/08/02 11:09:45;;;;;;;;;;;20.60;67.10;;;;;;5046717;28;19971;-77
2021/08/02 11:12:13;;;;;;;;;;;20.50;67.70;;;;;;5048772;28;19928;-76
2021/08/02 11:14:55;;;;;;;;;;;20.40;68.20;;;;;;5049364;28;20005;-76
2021/08/02 11:17:24;;;;;;;;;;;20.40;68.20;;;;;;5036173;28;21608;-77
2021/08/02 11:19:58;;;;;;;;;;;20.40;67.60;;;;;;5048620;28;20311;-77
2021/08/02 11:22:25;;;;;;;;;;;20.40;67.20;;;;;;5048697;28;19964;-77
2021/08/02 11:24:55;;;;;;;;;;;20.40;66.90;;;;;;5063521;28;19978;-77
2021/08/02 11:27:23;;;;;;;;;;;20.40;66.70;;;;;;5045206;28;20008;-77
2021/08/02 11:29:52;;;;;;;;;;;20.50;66.70;;;;;;5049970;28;19969;-78
2021/08/02 11:32:22;;;;;;;;;;;20.50;66.60;;;;;;5049571;28;19986;-77
2021/08/02 11:34:57;;;;;;;;;;;20.40;66.70;;;;;;5048506;28;20404;-77
2021/08/02 11:37:25;;;;;;;;;;;20.40;67.10;;;;;;5047824;28;20008;-77
2021/08/02 11:40:00;;;;;;;;;;;20.50;67.40;;;;;;5048319;28;19933;-77
2021/08/02 11:42:31;;;;;;;;;;;20.50;67.60;;;;;;5048350;28;19935;-77
2021/08/02 11:44:59;;;;;;;;;;;20.50;68.00;;;;;;5048324;28;19929;-77
2021/08/02 11:47:28;;;;;;;;;;;20.50;68.00;;;;;;5048581;28;20012;-77
2021/08/02 11:49:56;;;;;;;;;;;20.50;68.20;;;;;;5034460;28;19935;-77
2021/08/02 11:52:24;;;;;;;;;;;20.50;68.30;;;;;;5048307;28;19933;-77
2021/08/02 11:55:07;;;;;;;;;;;20.60;68.40;;;;;;5045945;28;19994;-77
2021/08/02 11:57:35;;;;;;;;;;;20.60;68.30;;;;;;5048067;28;20056;-77
2021/08/02 12:00:02;;;;;;;;;;;20.60;68.20;;;;;;5047635;28;19996;-77
2021/08/02 12:02:49;;;;;;;;;;;20.70;67.90;;;;;;5047836;28;20331;-77
2021/08/02 12:05:21;;;;;;;;;;;20.70;67.60;;;;;;5049502;28;19998;-77
2021/08/02 12:07:48;;;;;;;;;;;20.70;67.20;;;;;;5043796;28;20392;-77
2021/08/02 12:10:17;;;;;;;;;;;20.80;66.50;;;;;;5047717;28;20323;-77
2021/08/02 12:12:57;;;;;;;;;;;20.80;66.20;;;;;;5047733;28;20400;-77
2021/08/02 12:15:24;;;;;;;;;;;20.90;66.30;;;;;;5048002;28;19935;-77
2021/08/02 12:17:52;;;;;;;;;;;21.00;65.90;;;;;;5029801;28;19929;-76
2021/08/02 12:20:28;;;;;;;;;;;21.10;65.10;;;;;;5047825;28;19935;-77
2021/08/02 12:22:55;;;;;;;;;;;21.20;64.90;;;;;;5048435;28;19928;-77
2021/08/02 12:25:32;;;;;;;;;;;21.30;64.60;;;;;;5047826;28;20012;-77
2021/08/02 12:27:59;;;;;;;;;;;21.40;63.70;;;;;;5047921;28;20423;-77
2021/08/02 12:30:26;;;;;;;;;;;21.40;62.40;;;;;;5048075;28;19935;-77
2021/08/02 12:32:53;;;;;;;;;;;21.40;61.80;;;;;;5047819;28;19980;-77
2021/08/02 12:35:19;;;;;;;;;;;21.40;61.30;;;;;;5048014;28;19929;-77
2021/08/02 12:37:46;;;;;;;;;;;21.40;61.50;;;;;;5048138;28;20412;-77
2021/08/02 12:40:13;;;;;;;;;;;21.50;61.60;;;;;;5047857;28;19968;-77
2021/08/02 12:42:41;;;;;;;;;;;21.50;61.70;;;;;;5048212;28;20312;-77
2021/08/02 12:45:08;;;;;;;;;;;21.60;60.70;;;;;;5051736;28;20293;-77
2021/08/02 12:47:35;;;;;;;;;;;21.60;60.20;;;;;;5051540;28;19975;-77
2021/08/02 12:50:02;;;;;;;;;;;21.60;59.60;;;;;;5048508;28;19929;-77
2021/08/02 12:52:29;;;;;;;;;;;21.60;59.30;;;;;;5052403;28;19929;-77
2021/08/02 12:54:56;;;;;;;;;;;21.50;59.60;;;;;;5052932;28;20030;-77
2021/08/02 12:57:26;;;;;;;;;;;21.50;60.60;;;;;;5052163;28;20418;-76
2021/08/02 12:59:58;;;;;;;;;;;21.40;61.70;;;;;;5052962;28;19956;-77
2021/08/02 13:02:27;;;;;;;;;;;21.40;63.00;;;;;;5052744;28;20039;-77
2021/08/02 13:04:55;;;;;;;;;;;21.30;63.40;;;;;;5054303;28;19951;-77
2021/08/02 13:07:21;;;;;;;;;;;21.30;64.50;;;;;;5045043;28;19976;-76
2021/08/02 13:09:47;;;;;;;;;;;21.20;65.00;;;;;;5048748;28;20398;-76
2021/08/02 13:12:14;;;;;;;;;;;21.10;65.60;;;;;;5044085;28;20096;-76
2021/08/02 13:14:41;;;;;;;;;;;21.00;65.80;;;;;;5052611;28;19932;-76
2021/08/02 13:17:07;;;;;;;;;;;21.00;66.40;;;;;;5044340;28;19972;-79
2021/08/02 13:19:33;;;;;;;;;;;20.90;66.80;;;;;;5051211;28;20323;-76
2021/08/02 13:22:00;;;;;;;;;;;20.90;66.90;;;;;;5045149;28;19936;-76
2021/08/02 13:27:11;;;;;;;;;;;20.80;67.50;;;;;;5044088;28;20373;-76
2021/08/02 13:29:39;;;;;;;;;;;20.80;67.50;;;;;;5044454;28;19935;-76
2021/08/02 13:32:07;;;;;;;;;;;20.80;67.40;;;;;;5047950;28;19968;-76
2021/08/02 13:34:34;;;;;;;;;;;20.80;67.40;;;;;;5044546;28;20429;-76
2021/08/02 13:37:00;;;;;;;;;;;20.90;67.20;;;;;;5050054;28;19931;-76
2021/08/02 13:39:27;;;;;;;;;;;21.00;66.90;;;;;;5044316;28;20411;-76
2021/08/02 13:41:53;;;;;;;;;;;21.10;66.70;;;;;;5051113;28;19941;-76
2021/08/02 13:44:19;;;;;;;;;;;21.10;66.40;;;;;;5050648;28;19978;-76
2021/08/02 13:46:46;;;;;;;;;;;21.10;66.00;;;;;;5051053;28;19928;-76
2021/08/02 13:49:12;;;;;;;;;;;21.20;65.70;;;;;;5051040;28;19933;-76
2021/08/02 13:51:38;;;;;;;;;;;21.20;65.70;;;;;;5050552;28;19929;-76
2021/08/02 13:54:05;;;;;;;;;;;21.30;65.70;;;;;;5050592;28;19984;-76
2021/08/02 13:56:31;;;;;;;;;;;21.30;65.60;;;;;;5051231;28;19928;-76
2021/08/02 13:58:57;;;;;;;;;;;21.40;65.10;;;;;;5047834;28;19994;-76
2021/08/02 14:01:24;;;;;;;;;;;21.30;64.70;;;;;;5043856;28;19932;-76
2021/08/02 14:03:50;;;;;;;;;;;21.40;64.80;;;;;;5051502;28;19935;-76
2021/08/02 14:06:17;;;;;;;;;;;21.40;64.30;;;;;;5053034;28;20408;-76
2021/08/02 14:08:43;;;;;;;;;;;21.40;64.50;;;;;;5040950;28;19980;-76
2021/08/02 14:11:17;;;;;;;;;;;21.40;64.70;;;;;;5051582;28;19932;-76
2021/08/02 14:13:44;;;;;;;;;;;21.30;65.10;;;;;;5043562;28;19931;-76
2021/08/02 14:16:18;;;;;;;;;;;21.20;65.70;;;;;;5051693;28;20011;-76
2021/08/02 14:19:05;;;;;;;;;;;21.10;66.30;;;;;;5051079;28;20021;-76
2021/08/02 14:21:32;;;;;;;;;;;21.00;66.90;;;;;;5043348;28;20015;-76
2021/08/02 14:23:59;;;;;;;;;;;20.80;67.50;;;;;;5051511;28;20075;-76
2021/08/02 14:26:25;;;;;;;;;;;20.80;68.20;;;;;;5051056;28;20062;-76